Time;durP1;ratioP1;P1;durP2;ratioP2;P2;SDS_P1;SDS_P2;PMS_P1;PMS_P2;Temp;Humidity;BMP_temperature;BMP_pressure;BME280_temperature;BME280_humidity;BME280_pressure;Samples;Min_cycle;Max_cycle;Signal;HPM_P1;HPM_P2
2021/03/03 00:00:30;;;;;;;86.50;39.42;;;;;;;1.64;82.35;102331.08;1732634;81;27527;-77
2021/03/03 00:03:00;;;;;;;89.37;39.53;;;;;;;1.61;82.39;102333.88;1691397;81;25784;-77
2021/03/03 00:05:27;;;;;;;93.65;45.23;;;;;;;1.62;82.50;102338.70;1702277;81;25793;-76
2021/03/03 00:07:54;;;;;;;83.80;38.38;;;;;;;1.62;82.51;102336.91;1705266;81;25924;-77
2021/03/03 00:10:22;;;;;;;85.42;38.15;;;;;;;1.62;82.59;102334.73;1736257;81;26244;-76
2021/03/03 00:12:50;;;;;;;90.60;42.38;;;;;;;1.60;82.64;102330.88;1672927;81;27598;-77
2021/03/03 00:15:17;;;;;;;75.57;35.78;;;;;;;1.59;82.73;102334.44;1708454;81;25841;-76
2021/03/03 00:17:45;;;;;;;66.85;33.05;;;;;;;1.58;82.88;102330.11;1717600;81;25837;-75
2021/03/03 00:20:14;;;;;;;71.72;34.55;;;;;;;1.57;83.32;102331.03;1733186;81;26564;-76
2021/03/03 00:22:42;;;;;;;76.02;37.58;;;;;;;1.54;83.17;102333.38;1690832;81;26167;-78
2021/03/03 00:25:10;;;;;;;75.92;38.48;;;;;;;1.55;83.33;102338.20;1702405;81;27537;-76
2021/03/03 00:27:37;;;;;;;70.22;35.52;;;;;;;1.63;83.41;102345.20;1701039;81;26641;-78
2021/03/03 00:30:06;;;;;;;67.65;35.30;;;;;;;1.68;83.37;102348.45;1729777;81;25774;-77
2021/03/03 00:32:33;;;;;;;77.27;37.35;;;;;;;1.72;83.25;102337.23;1661826;84;25789;-77
2021/03/03 00:35:00;;;;;;;75.80;39.15;;;;;;;1.74;83.24;102337.52;1695457;83;25880;-77
2021/03/03 00:37:28;;;;;;;72.62;36.90;;;;;;;1.78;83.24;102332.91;1727049;82;27073;-79
2021/03/03 00:39:55;;;;;;;73.12;37.15;;;;;;;1.80;83.21;102327.06;1702772;83;26240;-76
2021/03/03 00:42:22;;;;;;;80.30;38.63;;;;;;;1.85;83.23;102328.52;1675787;83;25790;-78
2021/03/03 00:44:50;;;;;;;82.88;38.02;;;;;;;1.89;83.21;102331.82;1705550;81;25712;-78
2021/03/03 00:47:17;;;;;;;77.37;37.80;;;;;;;1.92;83.14;102323.73;1698395;82;25349;-76
2021/03/03 00:49:45;;;;;;;77.97;38.13;;;;;;;1.91;83.09;102317.59;1741150;81;27533;-78
2021/03/03 00:52:13;;;;;;;77.60;36.42;;;;;;;1.93;83.04;102313.52;1702829;81;26252;-78
2021/03/03 00:54:40;;;;;;;71.82;35.85;;;;;;;1.89;83.02;102306.26;1683436;82;25909;-77
2021/03/03 00:57:08;;;;;;;75.62;35.55;;;;;;;1.82;82.99;102304.08;1778927;80;26006;-78
2021/03/03 00:59:36;;;;;;;72.08;34.88;;;;;;;1.78;83.09;102303.39;1725987;83;25681;-77
2021/03/03 01:02:04;;;;;;;95.20;41.65;;;;;;;1.74;83.15;102303.19;1684300;83;27532;-78
2021/03/03 01:04:31;;;;;;;87.17;38.80;;;;;;;1.73;83.27;102300.64;1703575;82;25823;-75
2021/03/03 01:06:58;;;;;;;86.57;39.40;;;;;;;1.73;83.28;102299.32;1727179;82;25774;-77
2021/03/03 01:09:26;;;;;;;79.32;34.90;;;;;;;1.74;83.38;102301.86;1739374;81;25758;-77
2021/03/03 01:11:53;;;;;;;70.78;34.83;;;;;;;1.70;83.34;102300.34;1696395;81;25784;-78
2021/03/03 01:14:22;;;;;;;73.37;35.38;;;;;;;1.66;83.33;102300.14;1702895;81;27609;-76
2021/03/03 01:16:51;;;;;;;78.57;35.50;;;;;;;1.64;83.41;102298.06;1702315;81;26554;-76
2021/03/03 01:19:19;;;;;;;63.42;27.62;;;;;;;1.65;83.50;102290.50;1731963;81;25887;-78
2021/03/03 01:21:47;;;;;;;66.80;32.53;;;;;;;1.63;83.80;102296.34;1656444;81;25827;-77
2021/03/03 01:24:14;;;;;;;69.55;30.10;;;;;;;1.53;83.53;102289.44;1674762;83;25810;-78
2021/03/03 01:26:42;;;;;;;70.17;32.53;;;;;;;1.53;83.60;102289.44;1687320;81;27618;-76
2021/03/03 01:29:10;;;;;;;79.62;32.67;;;;;;;1.52;83.69;102285.54;1705691;81;26066;-77
2021/03/03 01:31:37;;;;;;;87.65;34.03;;;;;;;1.55;83.78;102288.02;1733812;81;25935;-75
2021/03/03 01:34:04;;;;;;;72.40;33.08;;;;;;;1.52;83.79;102279.80;1683675;82;25812;-77
2021/03/03 01:36:32;;;;;;;80.00;32.08;;;;;;;1.51;83.88;102286.49;1702050;81;26159;-78
2021/03/03 01:38:59;;;;;;;82.35;29.77;;;;;;;1.48;83.89;102285.34;1748688;81;27347;-77
2021/03/03 01:41:26;;;;;;;76.45;29.23;;;;;;;1.42;83.97;102278.63;1732223;82;25784;-78
2021/03/03 01:43:54;;;;;;;87.53;31.07;;;;;;;1.36;84.07;102275.48;1671466;82;25987;-77
2021/03/03 01:46:23;;;;;;;60.43;26.40;;;;;;;1.32;84.08;102275.28;1702800;82;26500;-77
2021/03/03 01:48:50;;;;;;;75.42;33.08;;;;;;;1.27;84.21;102269.40;1737779;81;25883;-77
2021/03/03 01:51:18;;;;;;;71.05;32.93;;;;;;;1.30;84.45;102267.92;1726170;82;28469;-76
2021/03/03 01:53:46;;;;;;;67.25;31.82;;;;;;;1.38;84.59;102266.55;1669385;82;25875;-77
2021/03/03 01:56:13;;;;;;;70.40;32.03;;;;;;;1.44;84.57;102264.87;1723325;82;25923;-76
2021/03/03 01:58:40;;;;;;;66.90;30.97;;;;;;;1.49;84.58;102258.87;1718021;82;25764;-78
2021/03/03 02:01:08;;;;;;;76.40;32.75;;;;;;;1.56;84.49;102260.69;1711840;82;25824;-78
2021/03/03 02:03:39;;;;;;;76.92;32.67;;;;;;;1.61;84.44;102254.64;1675743;82;27532;-76
2021/03/03 02:06:21;;;;;;;80.50;35.17;;;;;;;1.66;84.34;102253.06;1723772;82;26503;-77
2021/03/03 02:09:12;;;;;;;72.60;32.75;;;;;;;1.70;84.29;102255.91;1689931;81;25967;-76
2021/03/03 02:12:02;;;;;;;79.22;32.98;;;;;;;1.73;84.18;102251.77;1738560;81;26019;-76
2021/03/03 02:14:33;;;;;;;75.20;32.67;;;;;;;1.76;84.14;102255.53;1713222;82;26159;-77
2021/03/03 02:17:02;;;;;;;67.85;31.12;;;;;;;1.78;84.10;102247.91;1674702;82;28486;-77
2021/03/03 02:19:33;;;;;;;67.97;29.10;;;;;;;1.80;84.02;102247.81;1726980;81;25764;-77
2021/03/03 02:22:15;;;;;;;91.10;29.70;;;;;;;1.81;83.91;102250.37;1711647;82;25704;-77
2021/03/03 02:24:52;;;;;;;83.92;32.25;;;;;;;1.76;83.73;102249.80;1707609;82;26412;-76
2021/03/03 02:27:22;;;;;;;74.50;32.25;;;;;;;1.74;83.73;102250.81;1680958;82;25807;-78
2021/03/03 02:29:51;;;;;;;76.22;29.30;;;;;;;1.71;83.78;102253.16;1704290;82;28274;-78
2021/03/03 02:32:19;;;;;;;68.97;32.75;;;;;;;1.72;83.79;102248.73;1723619;82;25405;-78
2021/03/03 02:34:47;;;;;;;74.90;30.30;;;;;;;1.72;83.79;102254.88;1653221;83;25999;-77
2021/03/03 02:37:18;;;;;;;73.62;31.23;;;;;;;1.73;83.78;102247.34;1700219;83;25820;-76
2021/03/03 02:39:46;;;;;;;76.85;31.17;;;;;;;1.75;83.83;102256.03;1701709;82;25821;-76
2021/03/03 02:42:14;;;;;;;69.15;30.45;;;;;;;1.76;83.74;102249.80;1652485;82;28660;-77
2021/03/03 02:44:42;;;;;;;90.12;30.68;;;;;;;1.78;83.79;102257.16;1702778;82;25856;-77
2021/03/03 02:47:09;;;;;;;78.42;30.43;;;;;;;1.79;83.71;102248.77;1677859;82;25367;-78
2021/03/03 02:49:37;;;;;;;79.10;30.62;;;;;;;1.75;83.57;102249.43;1724299;82;26583;-76
2021/03/03 02:52:04;;;;;;;77.67;31.42;;;;;;;1.69;83.47;102246.30;1664364;84;25774;-77
2021/03/03 02:54:32;;;;;;;79.05;33.55;;;;;;;1.69;83.75;102253.72;1665036;83;27595;-77
2021/03/03 02:57:00;;;;;;;83.58;32.33;;;;;;;1.71;83.84;102245.73;1676193;84;25866;-77
2021/03/03 02:59:35;;;;;;;73.07;32.13;;;;;;;1.73;83.84;102246.48;1688842;84;26358;-76
2021/03/03 03:02:07;;;;;;;68.20;29.20;;;;;;;1.75;83.87;102241.50;1646095;85;26465;-78
2021/03/03 03:04:39;;;;;;;73.80;29.12;;;;;;;1.76;83.82;102245.83;1641970;84;26186;-78
2021/03/03 03:07:11;;;;;;;70.30;31.23;;;;;;;1.72;83.71;102241.67;1738750;81;27086;-78
2021/03/03 03:09:40;;;;;;;83.30;30.08;;;;;;;1.71;83.80;102241.77;1693219;84;26508;-78
2021/03/03 03:12:09;;;;;;;74.10;30.20;;;;;;;1.69;83.73;102241.84;1645826;83;25755;-78
2021/03/03 03:14:37;;;;;;;79.65;29.65;;;;;;;1.69;83.82;102243.16;1670986;84;25815;-77
2021/03/03 03:17:08;;;;;;;69.27;30.08;;;;;;;1.70;83.86;102246.20;1684870;83;25864;-78
2021/03/03 03:19:38;;;;;;;84.28;31.52;;;;;;;1.68;83.81;102245.90;1711397;83;28416;-77
2021/03/03 03:22:09;;;;;;;82.75;31.87;;;;;;;1.70;83.86;102243.55;1685588;83;25858;-78
2021/03/03 03:24:41;;;;;;;105.97;29.67;;;;;;;1.70;83.83;102243.55;1648703;84;25822;-77
2021/03/03 03:27:11;;;;;;;105.80;31.62;;;;;;;1.68;83.77;102241.94;1670913;84;26275;-77
2021/03/03 03:29:41;;;;;;;69.37;29.77;;;;;;;1.69;83.81;102245.80;1683032;83;25715;-77
2021/03/03 03:32:10;;;;;;;76.40;29.70;;;;;;;1.68;83.82;102239.30;1686723;83;27623;-78
2021/03/03 03:34:38;;;;;;;69.35;29.80;;;;;;;1.71;83.88;102238.63;1681784;84;25999;-77
2021/03/03 03:37:08;;;;;;;69.82;29.95;;;;;;;1.74;83.86;102237.61;1673956;84;25876;-78
2021/03/03 03:39:37;;;;;;;66.00;28.15;;;;;;;1.71;83.79;102233.84;1702138;83;25758;-78
2021/03/03 03:42:05;;;;;;;100.38;30.17;;;;;;;1.67;83.59;102229.69;1662241;84;25808;-77
2021/03/03 03:44:33;;;;;;;99.45;28.57;;;;;;;1.60;83.58;102232.30;1677518;83;27702;-78
2021/03/03 03:47:02;;;;;;;109.63;30.70;;;;;;;1.53;83.62;102230.48;1715966;83;25808;-76
2021/03/03 03:49:30;;;;;;;81.82;28.55;;;;;;;1.44;83.66;102227.91;1698047;83;25739;-78
2021/03/03 03:51:58;;;;;;;91.95;30.60;;;;;;;1.42;83.86;102229.78;1665147;82;25760;-76
2021/03/03 03:54:26;;;;;;;62.93;29.60;;;;;;;1.42;84.00;102231.11;1702874;82;26033;-77
2021/03/03 03:56:53;;;;;;;62.17;28.40;;;;;;;1.44;84.07;102229.23;1687812;82;27089;-77
2021/03/03 03:59:20;;;;;;;98.58;30.17;;;;;;;1.45;84.09;102224.80;1753668;81;25730;-77
2021/03/03 04:01:48;;;;;;;73.28;30.75;;;;;;;1.50;84.25;102226.69;1681635;82;25846;-77
2021/03/03 04:04:15;;;;;;;75.42;29.50;;;;;;;1.54;84.27;102219.82;1692561;82;25766;-78
2021/03/03 04:06:43;;;;;;;72.35;28.87;;;;;;;1.59;84.33;102226.16;1724319;82;25421;-78
2021/03/03 04:09:10;;;;;;;70.00;29.80;;;;;;;1.62;84.32;102218.06;1744737;81;28512;-78
2021/03/03 04:11:38;;;;;;;76.57;30.10;;;;;;;1.61;84.20;102222.95;1653076;82;26081;-78
2021/03/03 04:14:10;;;;;;;70.42;27.85;;;;;;;1.60;84.09;102221.73;1707315;82;25823;-77
2021/03/03 04:16:35;;;;;;;60.25;28.00;;;;;;;1.55;84.01;102217.58;1705425;81;26179;-78
2021/03/03 04:19:02;;;;;;;67.20;28.92;;;;;;;1.56;84.06;102218.44;1726514;81;26241;-78
2021/03/03 04:21:30;;;;;;;69.03;28.30;;;;;;;1.55;84.08;102208.80;1712518;81;27540;-78
2021/03/03 04:23:57;;;;;;;68.70;29.00;;;;;;;1.54;84.03;102213.22;1668282;84;25621;-80
2021/03/03 04:26:24;;;;;;;72.12;30.48;;;;;;;1.56;84.02;102214.47;1702633;82;25977;-78
2021/03/03 04:28:52;;;;;;;66.80;29.07;;;;;;;1.55;84.01;102214.08;1724103;81;26473;-79
2021/03/03 04:31:19;;;;;;;70.75;29.05;;;;;;;1.58;84.08;102215.69;1671108;82;26100;-78
2021/03/03 04:33:46;;;;;;;61.40;27.70;;;;;;;1.60;84.04;102213.34;1684446;81;27655;-77
2021/03/03 04:36:14;;;;;;;65.52;27.13;;;;;;;1.61;83.92;102210.21;1721720;81;25795;-77
2021/03/03 04:38:41;;;;;;;71.33;27.98;;;;;;;1.62;83.88;102214.11;1709994;82;25805;-77
2021/03/03 04:41:09;;;;;;;76.65;29.15;;;;;;;1.60;83.87;102205.42;1663335;81;25773;-77
2021/03/03 04:43:36;;;;;;;65.97;27.05;;;;;;;1.62;83.86;102202.22;1679229;83;26444;-78
2021/03/03 04:46:04;;;;;;;78.83;27.00;;;;;;;1.62;83.87;102199.58;1687436;82;27401;-78
2021/03/03 04:48:31;;;;;;;70.03;26.73;;;;;;;1.64;83.83;102196.37;1724027;82;25666;-77
2021/03/03 04:50:59;;;;;;;74.58;27.82;;;;;;;1.57;83.55;102197.67;1661865;81;26430;-76
2021/03/03 04:53:26;;;;;;;59.95;26.97;;;;;;;1.57;83.74;102192.39;1701278;82;26131;-77
2021/03/03 04:55:53;;;;;;;66.67;26.35;;;;;;;1.57;83.79;102198.99;1675313;82;25965;-78
2021/03/03 04:58:21;;;;;;;65.67;27.93;;;;;;;1.55;83.78;102207.02;1686984;82;27708;-76
2021/03/03 05:00:48;;;;;;;64.77;25.25;;;;;;;1.52;83.73;102198.40;1681046;82;26127;-76
2021/03/03 05:03:15;;;;;;;69.30;25.52;;;;;;;1.50;83.77;102199.81;1693747;83;25359;-77
2021/03/03 05:05:42;;;;;;;68.17;25.65;;;;;;;1.45;83.74;102195.77;1724099;82;25905;-78
2021/03/03 05:08:10;;;;;;;60.45;25.30;;;;;;;1.43;83.96;102201.60;1663252;82;25959;-77
2021/03/03 05:10:37;;;;;;;67.53;27.48;;;;;;;1.43;84.02;102193.68;1698708;82;27171;-76
2021/03/03 05:13:05;;;;;;;58.33;27.90;;;;;;;1.45;84.14;102191.80;1692945;83;25917;-76
2021/03/03 05:15:32;;;;;;;65.97;27.48;;;;;;;1.48;84.19;102193.78;1713696;83;25782;-77
2021/03/03 05:17:59;;;;;;;73.10;24.25;;;;;;;1.50;84.07;102177.84;1651856;82;25919;-77
2021/03/03 05:20:27;;;;;;;62.93;26.50;;;;;;;1.50;83.97;102180.48;1693647;82;26519;-76
2021/03/03 05:22:54;;;;;;;65.87;27.25;;;;;;;1.49;84.08;102181.44;1730380;81;28160;-77
2021/03/03 05:25:21;;;;;;;64.00;25.82;;;;;;;1.49;84.04;102180.11;1727900;82;25726;-77
2021/03/03 05:27:49;;;;;;;57.50;26.23;;;;;;;1.48;84.01;102178.40;1674626;82;26163;-77
2021/03/03 05:30:17;;;;;;;63.50;24.40;;;;;;;1.47;84.03;102190.77;1673906;82;25837;-76
2021/03/03 05:32:45;;;;;;;59.08;22.82;;;;;;;1.48;84.07;102187.64;1706342;81;25733;-77
2021/03/03 05:35:13;;;;;;;60.58;24.27;;;;;;;1.46;83.90;102190.84;1723380;82;27540;-78
2021/03/03 05:37:41;;;;;;;65.45;25.02;;;;;;;1.47;83.96;102185.95;1673708;83;25934;-75
2021/03/03 05:40:11;;;;;;;62.60;27.52;;;;;;;1.48;83.98;102182.36;1732807;80;26029;-77
2021/03/03 05:42:38;;;;;;;67.93;25.67;;;;;;;1.48;83.96;102191.60;1751832;80;26269;-76
2021/03/03 05:45:08;;;;;;;63.52;27.32;;;;;;;1.47;83.97;102193.41;1750579;80;25533;-77
2021/03/03 05:47:37;;;;;;;67.22;24.10;;;;;;;1.49;84.01;102193.31;1717664;80;27613;-77
2021/03/03 05:50:07;;;;;;;65.97;25.25;;;;;;;1.49;83.89;102195.95;1718417;81;26426;-77
2021/03/03 05:52:35;;;;;;;61.90;25.63;;;;;;;1.46;83.96;102195.66;1754611;79;25801;-76
2021/03/03 05:55:05;;;;;;;65.70;26.48;;;;;;;1.41;84.11;102196.88;1775563;79;26381;-77
2021/03/03 05:57:33;;;;;;;67.60;25.88;;;;;;;1.48;84.13;102199.06;1743517;79;26389;-76
2021/03/03 06:00:04;;;;;;;56.83;25.68;;;;;;;1.49;84.11;102197.28;1728405;81;28441;-78
2021/03/03 06:02:33;;;;;;;63.65;25.95;;;;;;;1.49;84.15;102195.95;1764485;79;25989;-78
2021/03/03 06:05:01;;;;;;;59.90;25.92;;;;;;;1.49;84.01;102194.17;1750735;80;25746;-75
2021/03/03 06:07:29;;;;;;;60.38;24.92;;;;;;;1.50;84.11;102193.22;1736369;79;26431;-76
2021/03/03 06:09:57;;;;;;;69.20;25.08;;;;;;;1.53;84.05;102190.88;1679323;82;26468;-77
2021/03/03 06:12:24;;;;;;;58.13;24.32;;;;;;;1.53;84.07;102189.09;1698079;82;27409;-78
2021/03/03 06:14:52;;;;;;;63.28;24.23;;;;;;;1.53;84.13;102189.55;1713663;82;25878;-78
2021/03/03 06:17:19;;;;;;;61.08;25.65;;;;;;;1.52;84.05;102186.52;1675710;81;25830;-78
2021/03/03 06:19:47;;;;;;;57.90;25.23;;;;;;;1.49;84.08;102184.08;1703333;81;26543;-76
2021/03/03 06:22:27;;;;;;;62.38;23.65;;;;;;;1.49;84.09;102187.58;1717837;81;25889;-77
2021/03/03 06:24:57;;;;;;;66.45;26.85;;;;;;;1.50;84.07;102176.05;1731958;81;28177;-76
2021/03/03 06:27:27;;;;;;;60.80;25.43;;;;;;;1.47;83.81;102179.36;1709810;81;26037;-76
2021/03/03 06:30:09;;;;;;;67.60;30.47;;;;;;;1.44;84.04;102179.06;1712403;81;25750;-76
2021/03/03 06:33:05;;;;;;;84.87;36.95;;;;;;;1.46;84.05;102175.00;1725849;81;26881;-77
2021/03/03 06:35:44;;;;;;;63.25;25.97;;;;;;;1.48;84.17;102176.62;1726985;81;25375;-79
2021/03/03 06:38:16;;;;;;;66.02;26.70;;;;;;;1.48;84.10;102176.62;1697084;81;28586;-79
2021/03/03 06:40:52;;;;;;;69.72;27.65;;;;;;;1.51;84.19;102176.45;1658468;83;26580;-77
2021/03/03 06:43:27;;;;;;;65.10;24.32;;;;;;;1.51;84.16;102175.13;1693050;82;26021;-78
2021/03/03 06:45:57;;;;;;;54.93;22.75;;;;;;;1.49;84.15;102173.05;1742441;81;26485;-78
2021/03/03 06:48:42;;;;;;;54.35;22.70;;;;;;;1.48;83.98;102170.02;1653355;82;25910;-77
2021/03/03 06:51:32;;;;;;;56.00;23.42;;;;;;;1.47;84.07;102166.16;1719850;81;27736;-78
2021/03/03 06:54:06;;;;;;;56.85;22.00;;;;;;;1.49;84.20;102165.13;1748588;80;25730;-77
2021/03/03 06:56:41;;;;;;;53.13;24.55;;;;;;;1.49;84.11;102168.23;1753647;79;25845;-78
2021/03/03 06:59:19;;;;;;;66.33;23.62;;;;;;;1.48;84.23;102162.09;1736011;79;25745;-78
2021/03/03 07:02:01;;;;;;;54.13;22.73;;;;;;;1.50;84.25;102161.53;1770181;79;25916;-78
2021/03/03 07:04:36;;;;;;;52.67;20.75;;;;;;;1.49;84.33;102159.84;1760515;80;28208;-77
2021/03/03 07:07:15;;;;;;;68.25;22.58;;;;;;;1.52;84.29;102158.79;1776190;79;25688;-76
2021/03/03 07:10:00;;;;;;;56.63;24.30;;;;;;;1.55;84.41;102154.20;1749047;79;25744;-76
2021/03/03 07:12:31;;;;;;;61.63;23.18;;;;;;;1.57;84.53;102154.09;1737399;79;25754;-77
2021/03/03 07:15:11;;;;;;;65.08;24.00;;;;;;;1.58;84.38;102153.17;1764521;79;25810;-78
2021/03/03 07:17:45;;;;;;;61.80;24.63;;;;;;;1.60;84.39;102153.06;1787703;79;28451;-77
2021/03/03 07:20:15;;;;;;;54.90;21.42;;;;;;;1.61;84.29;102151.65;1718609;80;25862;-75
2021/03/03 07:22:52;;;;;;;60.17;24.98;;;;;;;1.60;84.23;102149.97;1755022;79;25667;-77
2021/03/03 07:25:22;;;;;;;62.98;23.85;;;;;;;1.58;84.32;102152.31;1752712;79;25756;-76
2021/03/03 07:27:50;;;;;;;65.87;24.65;;;;;;;1.62;84.55;102148.08;1776343;79;26159;-78
2021/03/03 07:30:23;;;;;;;64.65;24.00;;;;;;;1.67;84.51;102148.63;1745495;79;28456;-78
2021/03/03 07:32:52;;;;;;;59.03;25.10;;;;;;;1.70;84.44;102145.82;1759446;79;25775;-77
2021/03/03 07:35:19;;;;;;;57.65;23.32;;;;;;;1.70;84.44;102148.47;1754861;79;25856;-77
2021/03/03 07:37:54;;;;;;;65.15;24.25;;;;;;;1.73;84.49;102142.16;1763108;79;25802;-77
2021/03/03 07:40:28;;;;;;;59.70;24.55;;;;;;;1.75;84.38;102142.44;1725991;79;25873;-77
2021/03/03 07:43:01;;;;;;;67.10;26.85;;;;;;;1.78;84.40;102136.95;1755053;79;27529;-79
2021/03/03 07:45:39;;;;;;;65.45;23.55;;;;;;;1.82;84.49;102141.11;1761648;79;25882;-78
2021/03/03 07:48:08;;;;;;;64.65;24.87;;;;;;;1.83;84.39;102142.82;1756805;79;26607;-78
2021/03/03 07:50:37;;;;;;;60.25;23.18;;;;;;;1.83;84.36;102141.96;1712905;79;26610;-78
2021/03/03 07:53:07;;;;;;;69.87;28.95;;;;;;;1.84;84.37;102140.54;1731955;80;26273;-78
2021/03/03 07:55:37;;;;;;;62.30;25.48;;;;;;;1.86;84.38;102143.94;1701824;83;27340;-77
2021/03/03 07:58:08;;;;;;;58.65;23.62;;;;;;;1.90;84.52;102138.87;1754521;81;25833;-79
2021/03/03 08:00:40;;;;;;;68.42;24.25;;;;;;;1.92;84.56;102136.98;1633635;82;25780;-78
2021/03/03 08:03:08;;;;;;;63.83;25.80;;;;;;;1.93;84.54;102137.34;1783528;80;25807;-78
2021/03/03 08:05:39;;;;;;;67.35;24.98;;;;;;;1.95;84.58;102137.23;1764762;80;25788;-77
2021/03/03 08:08:28;;;;;;;55.63;22.82;;;;;;;1.98;84.53;102137.06;1784386;79;27497;-77
2021/03/03 08:11:05;;;;;;;61.55;26.25;;;;;;;2.00;84.79;102137.35;1743280;80;26204;-78
2021/03/03 08:13:42;;;;;;;72.35;27.95;;;;;;;2.06;84.82;102132.14;1795244;79;25811;-77
2021/03/03 08:16:09;;;;;;;64.17;24.23;;;;;;;2.05;84.66;102128.64;1763626;80;25748;-76
2021/03/03 08:18:50;;;;;;;64.17;27.25;;;;;;;2.08;84.70;102121.00;1775314;79;25771;-78
2021/03/03 08:21:23;;;;;;;67.60;26.17;;;;;;;2.10;84.80;102118.65;1736264;80;27545;-76
2021/03/03 08:23:52;;;;;;;72.10;26.35;;;;;;;2.10;84.76;102113.83;1771492;80;26172;-77
2021/03/03 08:26:28;;;;;;;71.72;28.27;;;;;;;2.13;84.72;102114.51;1795288;79;25940;-77
2021/03/03 08:29:13;;;;;;;70.00;26.37;;;;;;;2.15;84.80;102111.76;1780412;80;26403;-77
2021/03/03 08:31:40;;;;;;;75.45;29.27;;;;;;;2.15;84.83;102107.33;1740153;79;25823;-76
2021/03/03 08:34:09;;;;;;;68.70;28.42;;;;;;;2.17;84.99;102108.08;1761776;80;27419;-77
2021/03/03 08:36:42;;;;;;;76.22;31.33;;;;;;;2.19;85.04;102103.55;1765173;80;25811;-77
2021/03/03 08:39:17;;;;;;;67.03;28.07;;;;;;;2.21;84.93;102108.73;1765901;80;25933;-77
2021/03/03 08:41:45;;;;;;;71.25;29.87;;;;;;;2.19;84.97;102104.01;1783875;79;26854;-76
2021/03/03 08:44:15;;;;;;;77.60;30.50;;;;;;;2.21;85.03;102100.33;1763489;80;25876;-77
2021/03/03 08:46:47;;;;;;;75.22;30.90;;;;;;;2.24;85.15;102094.00;1780837;80;27513;-76
2021/03/03 08:49:20;;;;;;;69.10;30.85;;;;;;;2.30;85.34;102087.86;1764784;80;25804;-76
2021/03/03 08:51:49;;;;;;;73.57;29.95;;;;;;;2.38;85.31;102090.47;1767903;80;25827;-76
2021/03/03 08:54:39;;;;;;;75.70;33.53;;;;;;;2.41;85.27;102092.45;1743056;79;26308;-76
2021/03/03 08:57:29;;;;;;;70.10;28.92;;;;;;;2.43;85.31;102083.95;1790130;79;26067;-77
2021/03/03 08:59:56;;;;;;;63.55;29.82;;;;;;;2.46;85.26;102087.70;1790689;79;27522;-77
2021/03/03 09:02:26;;;;;;;64.75;29.50;;;;;;;2.54;85.28;102079.30;1752573;79;26116;-78
2021/03/03 09:04:56;;;;;;;70.20;30.10;;;;;;;2.54;85.17;102069.56;1754285;79;26418;-78
2021/03/03 09:07:31;;;;;;;70.12;30.60;;;;;;;2.61;85.30;102066.05;1762889;79;26349;-76
2021/03/03 09:10:09;;;;;;;77.03;31.75;;;;;;;2.62;85.18;102052.72;1733562;79;26023;-77
2021/03/03 09:12:45;;;;;;;67.87;29.82;;;;;;;2.62;85.15;102060.65;1770250;79;27531;-78
2021/03/03 09:15:15;;;;;;;76.60;31.55;;;;;;;2.66;85.04;102059.97;1760637;79;25928;-78
2021/03/03 09:17:45;;;;;;;63.85;29.87;;;;;;;2.70;85.19;102061.45;1783976;79;25679;-76
2021/03/03 09:20:16;;;;;;;75.45;32.53;;;;;;;2.76;85.22;102057.11;1724804;79;25952;-77
2021/03/03 09:22:46;;;;;;;78.22;32.13;;;;;;;2.81;85.36;102051.02;1774909;79;25848;-76
2021/03/03 09:25:20;;;;;;;75.27;33.80;;;;;;;2.87;85.29;102047.96;1755026;79;27355;-77
2021/03/03 09:27:54;;;;;;;121.37;48.68;;;;;;;2.87;85.21;102047.49;1781542;79;25813;-76
2021/03/03 09:30:24;;;;;;;114.22;48.23;;;;;;;2.88;85.09;102050.53;1714607;79;25374;-76
2021/03/03 09:32:52;;;;;;;95.00;40.15;;;;;;;2.91;85.19;102042.83;1757465;79;25548;-80
2021/03/03 09:35:31;;;;;;;81.10;35.80;;;;;;;2.95;85.29;102044.35;1751127;79;25848;-77
2021/03/03 09:37:59;;;;;;;75.12;31.57;;;;;;;2.97;85.24;102039.30;1778524;79;28446;-77
2021/03/03 09:40:32;;;;;;;88.87;39.78;;;;;;;3.01;85.37;102039.49;1714419;79;25760;-76
2021/03/03 09:43:01;;;;;;;76.77;32.40;;;;;;;3.05;85.20;102038.33;1738118;79;26576;-76
2021/03/03 09:45:29;;;;;;;105.10;42.67;;;;;;;3.08;85.13;102034.14;1745969;79;25835;-78
2021/03/03 09:47:57;;;;;;;126.05;49.03;;;;;;;3.11;85.29;102034.41;1775726;79;26038;-77
2021/03/03 09:50:33;;;;;;;85.47;34.70;;;;;;;3.16;85.41;102028.34;1712328;79;27675;-78
2021/03/03 09:53:01;;;;;;;78.95;34.92;;;;;;;3.18;85.13;102026.90;1764774;79;25748;-77
2021/03/03 09:55:32;;;;;;;74.75;32.93;;;;;;;3.21;85.22;102032.82;1745820;79;26096;-76
2021/03/03 09:58:00;;;;;;;72.80;31.57;;;;;;;3.25;85.06;102030.83;1769795;79;25836;-78
2021/03/03 10:00:40;;;;;;;83.78;35.35;;;;;;;3.28;85.06;102030.14;1742303;79;25716;-78
2021/03/03 10:03:16;;;;;;;79.70;35.70;;;;;;;3.30;85.16;102026.05;1754830;79;27482;-77
2021/03/03 10:05:44;;;;;;;89.85;38.78;;;;;;;3.36;85.25;102032.27;1750817;79;26382;-77
2021/03/03 10:08:15;;;;;;;87.37;38.65;;;;;;;3.39;85.22;102035.55;1778989;79;25792;-77
2021/03/03 10:10:46;;;;;;;93.20;41.35;;;;;;;3.45;85.34;102027.64;1709093;80;26398;-77
2021/03/03 10:13:21;;;;;;;79.50;38.05;;;;;;;3.53;85.39;102027.98;1761386;79;25847;-78
2021/03/03 10:15:49;;;;;;;92.15;38.55;;;;;;;3.56;85.22;102027.75;1749899;79;28191;-78
2021/03/03 10:18:17;;;;;;;91.22;38.85;;;;;;;3.54;84.96;102011.97;1770306;79;25812;-79
2021/03/03 10:20:56;;;;;;;92.22;39.70;;;;;;;3.60;85.15;102008.03;1707394;80;26323;-78
2021/03/03 10:23:27;;;;;;;85.00;35.73;;;;;;;3.66;85.16;102003.62;1736993;79;25741;-77
2021/03/03 10:26:08;;;;;;;86.87;38.42;;;;;;;3.67;84.74;102003.53;1744386;81;25915;-79
2021/03/03 10:28:36;;;;;;;;;;;;;;;3.60;84.48;102004.05;1781745;79;27521;-79
2021/03/03 10:31:05;;;;;;;93.33;40.28;;;;;;;3.61;84.80;102005.30;1763985;79;25690;-79
2021/03/03 10:33:39;;;;;;;106.32;42.53;;;;;;;3.64;85.00;102000.23;1763123;79;25798;-79
2021/03/03 10:36:17;;;;;;;104.87;44.03;;;;;;;3.70;84.98;102003.80;1750422;79;25816;-79
2021/03/03 10:38:54;;;;;;;104.50;44.48;;;;;;;3.75;85.12;102005.16;1775386;79;25777;-79
2021/03/03 10:41:34;;;;;;;106.90;43.65;;;;;;;3.81;85.12;101992.78;1737748;79;28517;-78
2021/03/03 10:44:06;;;;;;;109.27;47.43;;;;;;;3.85;85.05;101991.61;1763901;80;26120;-78
2021/03/03 10:46:45;;;;;;;104.23;41.37;;;;;;;3.89;84.93;101982.47;1758975;79;25879;-78
2021/03/03 10:49:18;;;;;;;120.17;49.42;;;;;;;3.93;85.03;101975.64;1747565;79;26408;-79
2021/03/03 10:51:44;;;;;;;113.92;48.28;;;;;;;3.99;85.24;101969.89;1760003;79;25816;-77
2021/03/03 10:54:12;;;;;;;111.17;45.48;;;;;;;4.04;85.13;101955.83;1756323;79;28445;-78
2021/03/03 10:56:43;;;;;;;116.33;48.33;;;;;;;4.09;85.15;101961.16;1761166;79;25788;-79
2021/03/03 10:59:30;;;;;;;132.67;56.98;;;;;;;4.12;85.04;101946.83;1742633;79;25824;-79
2021/03/03 11:01:58;;;;;;;125.15;50.05;;;;;;;4.15;85.01;101934.18;1772487;79;26792;-78
2021/03/03 11:04:43;;;;;;;122.05;52.83;;;;;;;4.19;85.11;101930.34;1738443;79;26095;-75
2021/03/03 11:07:12;;;;;;;119.75;49.83;;;;;;;4.24;85.10;101928.67;1782848;79;27350;-77
2021/03/03 11:09:40;;;;;;;124.60;52.50;;;;;;;4.24;84.93;101921.58;1754173;79;25787;-76
2021/03/03 11:12:10;;;;;;;123.25;53.58;;;;;;;4.27;84.90;101921.36;1775800;79;26448;-76
2021/03/03 11:14:38;;;;;;;118.77;50.78;;;;;;;4.32;85.01;101919.19;1728048;79;25854;-77
2021/03/03 11:17:06;;;;;;;101.40;43.95;;;;;;;4.40;85.07;101919.48;1754558;79;25923;-77
2021/03/03 11:19:33;;;;;;;114.70;49.33;;;;;;;4.46;84.61;101915.04;1745606;79;27668;-77
2021/03/03 11:22:01;;;;;;;113.75;49.25;;;;;;;4.47;84.60;101916.72;1717776;79;25802;-76
2021/03/03 11:24:28;;;;;;;108.22;47.62;;;;;;;4.50;84.72;101912.52;1765062;80;25948;-76
2021/03/03 11:26:56;;;;;;;102.90;46.53;;;;;;;4.53;84.56;101913.59;1751494;79;25745;-76
2021/03/03 11:29:24;;;;;;;111.55;48.87;;;;;;;4.58;84.75;101908.80;1732798;79;26667;-76
2021/03/03 11:31:51;;;;;;;113.42;53.65;;;;;;;4.65;84.67;101907.84;1746084;79;27608;-76